createdAt,value
2022-09-20T00:01:16.345Z,23.83
2022-09-20T00:03:47.434Z,23.30
2022-09-20T00:06:18.955Z,24.98
2022-09-20T00:08:47.047Z,23.95
2022-09-20T00:11:19.999Z,22.50
2022-09-20T00:13:51.095Z,25.33
2022-09-20T00:16:27.245Z,26.27
2022-09-20T00:18:56.753Z,24.30
2022-09-20T00:21:27.754Z,25.77
2022-09-20T00:23:55.452Z,24.60
2022-09-20T00:26:23.156Z,25.05
2022-09-20T00:28:50.661Z,27.92
2022-09-20T00:31:18.587Z,26.05
2022-09-20T00:34:04.432Z,26.88
2022-09-20T00:36:31.946Z,25.95
2022-09-20T00:39:01.095Z,21.90
2022-09-20T00:41:30.217Z,27.52
2022-09-20T00:43:57.793Z,24.67
2022-09-20T00:46:27.775Z,25.27
2022-09-20T00:48:59.902Z,22.07
2022-09-20T00:51:32.160Z,26.90
2022-09-20T00:54:04.796Z,26.80
2022-09-20T00:56:35.164Z,20.67
2022-09-20T00:59:05.413Z,24.08
2022-09-20T01:01:32.727Z,22.52
2022-09-20T01:04:05.577Z,24.83
2022-09-20T01:06:34.946Z,22.48
2022-09-20T01:09:05.789Z,25.38
2022-09-20T01:14:00.401Z,21.10
2022-09-20T01:16:31.549Z,25.23
2022-09-20T01:19:03.378Z,24.95
2022-09-20T01:21:30.653Z,23.25
2022-09-20T01:24:22.359Z,22.75
2022-09-20T01:27:18.711Z,24.88
2022-09-20T01:30:12.137Z,22.90
2022-09-20T01:32:50.252Z,23.98
2022-09-20T01:35:21.635Z,22.52
2022-09-20T01:38:11.284Z,24.52
2022-09-20T01:41:04.426Z,25.33
2022-09-20T01:43:45.290Z,20.25
2022-09-20T01:49:54.499Z,23.45
2022-09-20T01:52:38.828Z,22.10
2022-09-20T01:55:28.571Z,22.20
2022-09-20T01:58:14.165Z,23.80
2022-09-20T02:01:42.797Z,23.33
2022-09-20T02:04:32.174Z,23.30
2022-09-20T02:07:09.315Z,23.42
2022-09-20T02:10:09.729Z,24.52
2022-09-20T02:12:42.784Z,21.42
2022-09-20T02:15:28.475Z,20.92
2022-09-20T02:17:55.372Z,22.33
2022-09-20T02:20:50.013Z,23.50
2022-09-20T02:23:33.582Z,21.23
2022-09-20T02:26:09.480Z,23.30
2022-09-20T02:29:16.150Z,23.05
2022-09-20T02:32:03.804Z,21.90
2022-09-20T02:34:46.903Z,22.40
2022-09-20T02:37:40.522Z,23.25
2022-09-20T02:40:47.592Z,23.23
2022-09-20T02:43:41.170Z,24.70
2022-09-20T02:46:21.379Z,25.92
2022-09-20T02:49:00.994Z,24.15
2022-09-20T02:51:43.516Z,26.92
2022-09-20T02:54:37.753Z,26.77
2022-09-20T02:57:21.859Z,24.52
2022-09-20T03:00:05.505Z,27.90
2022-09-20T03:02:52.600Z,28.40
2022-09-20T03:05:31.549Z,26.80
2022-09-20T03:08:41.031Z,27.90
2022-09-20T03:11:25.563Z,28.60
2022-09-20T03:14:07.838Z,29.08
2022-09-20T03:17:13.316Z,29.60
2022-09-20T03:20:07.204Z,29.17
2022-09-20T03:22:41.806Z,30.65
2022-09-20T03:25:52.698Z,28.55
2022-09-20T03:28:56.584Z,30.40
2022-09-20T03:31:56.896Z,28.60
2022-09-20T03:34:44.285Z,29.38
2022-09-20T03:37:34.665Z,28.65
2022-09-20T03:40:10.685Z,28.65
2022-09-20T03:42:47.915Z,26.88
2022-09-20T03:45:34.336Z,27.55
2022-09-20T03:48:01.279Z,24.92
2022-09-20T03:50:53.362Z,26.60
2022-09-20T03:53:47.858Z,24.13
2022-09-20T03:56:44.189Z,23.80
2022-09-20T03:59:32.786Z,26.77
2022-09-20T04:02:49.516Z,24.48
2022-09-20T04:05:23.442Z,19.40
2022-09-20T04:08:40.883Z,22.08
2022-09-20T04:11:44.271Z,19.35
2022-09-20T04:14:25.672Z,21.83
2022-09-20T04:17:22.702Z,22.38
2022-09-20T04:19:59.981Z,21.48
2022-09-20T04:22:29.930Z,20.05
2022-09-20T04:25:05.832Z,23.40
2022-09-20T04:27:41.797Z,21.20
2022-09-20T04:30:30.137Z,23.55
2022-09-20T04:33:01.941Z,23.38
2022-09-20T04:36:24.349Z,22.65
2022-09-20T04:39:29.857Z,21.88
2022-09-20T04:42:45.384Z,23.75
2022-09-20T04:45:31.348Z,22.42
2022-09-20T04:48:26.959Z,22.45
2022-09-20T04:51:31.511Z,21.52
2022-09-20T04:54:19.937Z,21.17
2022-09-20T04:57:27.644Z,21.08
2022-09-20T05:00:03.635Z,19.77
2022-09-20T05:03:30.682Z,20.67
2022-09-20T05:06:09.705Z,18.25
2022-09-20T05:09:03.442Z,20.92
2022-09-20T05:11:57.438Z,22.63
2022-09-20T05:14:45.837Z,21.27
2022-09-20T05:17:19.643Z,20.05
2022-09-20T05:19:50.547Z,21.05
2022-09-20T05:22:32.718Z,19.45
2022-09-20T05:25:26.184Z,19.13
2022-09-20T05:28:03.285Z,21.00
2022-09-20T05:30:56.120Z,19.90
2022-09-20T05:33:38.136Z,19.25
2022-09-20T05:36:19.826Z,20.85
2022-09-20T05:38:51.096Z,19.15
2022-09-20T05:41:37.282Z,22.42
2022-09-20T05:44:24.364Z,22.02
2022-09-20T05:46:59.470Z,21.98
2022-09-20T05:49:52.937Z,19.60
2022-09-20T05:52:32.597Z,20.05
2022-09-20T05:54:59.523Z,18.85
2022-09-20T05:58:01.917Z,21.25
2022-09-20T06:00:43.515Z,21.33
2022-09-20T06:03:16.872Z,19.30
2022-09-20T06:06:10.334Z,20.83
2022-09-20T06:09:01.429Z,19.75
2022-09-20T06:12:03.251Z,21.33
2022-09-20T06:14:41.423Z,19.63
2022-09-20T06:17:14.468Z,20.15
2022-09-20T06:20:00.052Z,21.92
2022-09-20T06:22:37.090Z,19.33
2022-09-20T06:25:10.091Z,20.45
2022-09-20T06:27:41.746Z,19.15
2022-09-20T06:30:17.569Z,18.27
2022-09-20T06:33:00.270Z,18.90
2022-09-20T06:36:24.657Z,19.05
2022-09-20T06:39:49.185Z,18.95
2022-09-20T06:42:16.247Z,20.20
2022-09-20T06:44:43.560Z,18.42
2022-09-20T06:47:11.916Z,18.40
2022-09-20T06:49:39.989Z,17.98
2022-09-20T06:52:08.238Z,16.35
2022-09-20T06:54:35.301Z,18.25
2022-09-20T06:57:06.673Z,17.08
2022-09-20T06:59:33.617Z,19.58
2022-09-20T07:02:00.550Z,19.52
2022-09-20T07:04:27.458Z,17.75
2022-09-20T07:07:09.103Z,19.35
2022-09-20T07:09:36.492Z,19.45
2022-09-20T07:12:03.651Z,19.35
2022-09-20T07:14:33.367Z,18.63
2022-09-20T07:17:00.321Z,18.90
2022-09-20T07:19:27.405Z,18.50
2022-09-20T07:21:54.834Z,16.88
2022-09-20T07:24:21.762Z,17.50
2022-09-20T07:27:00.100Z,17.60
2022-09-20T07:29:27.700Z,18.83
2022-09-20T07:31:56.140Z,18.10
2022-09-20T07:34:23.147Z,18.42
2022-09-20T07:36:51.512Z,22.35
2022-09-20T07:39:19.187Z,21.90
2022-09-20T07:41:48.788Z,19.58
2022-09-20T07:44:22.554Z,18.23
2022-09-20T07:46:54.245Z,17.02
2022-09-20T07:49:22.380Z,19.95
2022-09-20T07:51:50.153Z,18.38
2022-09-20T07:54:17.712Z,17.10
2022-09-20T07:56:45.542Z,19.17
2022-09-20T07:59:13.452Z,16.85
2022-09-20T08:01:41.862Z,15.73
2022-09-20T08:04:10.438Z,16.58
2022-09-20T08:06:39.423Z,18.25
2022-09-20T08:09:10.898Z,17.13
2022-09-20T08:11:39.891Z,18.23
2022-09-20T08:14:09.223Z,17.48
2022-09-20T08:16:43.490Z,14.98
2022-09-20T08:19:25.846Z,16.70
2022-09-20T08:21:54.269Z,16.80
2022-09-20T08:24:21.974Z,17.25
2022-09-20T08:26:49.128Z,17.20
2022-09-20T08:29:16.126Z,13.73
2022-09-20T08:31:43.728Z,13.85
2022-09-20T08:34:13.160Z,14.50
2022-09-20T08:36:42.850Z,14.77
2022-09-20T08:42:11.372Z,15.45
2022-09-20T08:44:57.845Z,15.30
2022-09-20T08:47:31.956Z,15.55
2022-09-20T08:50:08.859Z,14.18
2022-09-20T08:52:39.014Z,16.20
2022-09-20T08:55:40.168Z,15.98
2022-09-20T08:58:11.176Z,15.27
2022-09-20T09:00:40.172Z,13.38
2022-09-20T09:03:12.564Z,12.93
2022-09-20T09:05:45.601Z,14.82
2022-09-20T09:08:19.346Z,14.10
2022-09-20T09:10:58.129Z,13.82
2022-09-20T09:13:34.870Z,14.50
2022-09-20T09:16:10.603Z,13.90
2022-09-20T09:18:40.961Z,13.35
2022-09-20T09:21:11.161Z,14.48
2022-09-20T09:23:45.828Z,13.30
2022-09-20T09:26:22.778Z,12.95
2022-09-20T09:29:13.302Z,12.43
2022-09-20T09:31:40.493Z,11.20
2022-09-20T09:34:24.962Z,12.43
2022-09-20T09:36:52.424Z,12.80
2022-09-20T09:39:40.872Z,15.23
2022-09-20T09:42:29.179Z,16.13
2022-09-20T09:45:18.576Z,15.95
2022-09-20T09:47:46.351Z,16.73
2022-09-20T09:50:26.061Z,15.90
2022-09-20T09:53:10.526Z,16.55
2022-09-20T09:56:00.394Z,15.30
2022-09-20T09:59:06.129Z,14.23
2022-09-20T10:01:42.219Z,14.77
2022-09-20T10:04:18.751Z,15.00
2022-09-20T10:07:23.991Z,13.63
2022-09-20T10:10:02.155Z,15.45
2022-09-20T10:12:48.527Z,13.65
2022-09-20T10:15:31.399Z,14.25
2022-09-20T10:18:25.303Z,15.43
2022-09-20T10:21:10.931Z,14.25
2022-09-20T10:24:03.164Z,12.63
2022-09-20T10:27:04.034Z,15.63
2022-09-20T10:29:53.382Z,14.53
2022-09-20T10:32:57.663Z,14.00
2022-09-20T10:35:46.325Z,13.70
2022-09-20T10:38:24.086Z,13.75
2022-09-20T10:41:31.338Z,13.18
2022-09-20T10:44:07.093Z,14.43
2022-09-20T10:47:02.624Z,12.82
2022-09-20T10:49:41.917Z,11.02
2022-09-20T10:52:20.821Z,9.10
2022-09-20T10:55:11.062Z,11.00
2022-09-20T10:57:46.865Z,10.45
2022-09-20T11:00:25.119Z,12.18
2022-09-20T11:03:08.694Z,9.77
2022-09-20T11:06:06.838Z,10.10
2022-09-20T11:08:38.588Z,9.70
2022-09-20T11:11:20.805Z,9.70
2022-09-20T11:13:50.454Z,9.88
2022-09-20T11:16:43.681Z,9.20
2022-09-20T11:19:44.896Z,8.60
2022-09-20T11:22:19.239Z,7.63
2022-09-20T11:24:55.494Z,8.43
2022-09-20T11:27:33.426Z,8.48
2022-09-20T11:30:05.613Z,7.13
2022-09-20T11:32:43.300Z,7.50
2022-09-20T11:35:15.165Z,7.65
2022-09-20T11:38:03.465Z,7.88
2022-09-20T11:40:37.203Z,10.00
2022-09-20T11:43:06.999Z,9.52
2022-09-20T11:45:35.726Z,7.65
2022-09-20T11:48:13.254Z,7.65
2022-09-20T11:50:51.566Z,8.48
2022-09-20T11:53:37.459Z,7.80
2022-09-20T11:56:21.317Z,7.05
2022-09-20T11:58:56.192Z,7.82
2022-09-20T12:01:30.451Z,7.15
2022-09-20T12:04:30.581Z,8.15
2022-09-20T12:07:05.938Z,7.82
2022-09-20T12:09:40.525Z,7.35
2022-09-20T12:12:38.160Z,7.72
2022-09-20T12:15:22.273Z,7.63
2022-09-20T12:17:50.022Z,7.30
2022-09-20T12:20:35.280Z,7.10
2022-09-20T12:23:45.459Z,6.13
2022-09-20T12:26:21.432Z,6.07
2022-09-20T12:28:52.697Z,5.97
2022-09-20T12:31:22.764Z,5.88
2022-09-20T12:34:04.869Z,5.50
2022-09-20T12:36:36.905Z,5.28
2022-09-20T12:39:22.376Z,5.10
2022-09-20T12:42:10.665Z,4.75
2022-09-20T12:44:46.290Z,5.00
2022-09-20T12:47:13.225Z,4.70
2022-09-20T12:50:04.373Z,4.00
2022-09-20T12:52:55.660Z,3.65
2022-09-20T12:55:51.828Z,4.32
2022-09-20T12:58:24.188Z,3.60
2022-09-20T13:01:14.432Z,3.78
2022-09-20T13:03:45.678Z,3.45
2022-09-20T13:06:16.769Z,3.25
2022-09-20T13:09:02.617Z,3.30
2022-09-20T13:11:47.939Z,3.95
2022-09-20T13:14:24.562Z,3.95
2022-09-20T13:16:59.328Z,3.83
2022-09-20T13:19:42.245Z,3.95
2022-09-20T13:22:20.489Z,3.50
2022-09-20T13:24:50.288Z,3.17
2022-09-20T13:27:48.200Z,3.75
2022-09-20T13:30:17.998Z,3.50
2022-09-20T13:32:45.363Z,3.45
2022-09-20T13:35:21.992Z,3.40
2022-09-20T13:37:56.604Z,3.08
2022-09-20T13:40:25.795Z,2.78
2022-09-20T13:43:19.505Z,2.80
2022-09-20T13:45:44.059Z,2.63
2022-09-20T13:48:10.995Z,2.60
2022-09-20T13:50:45.337Z,2.40
2022-09-20T13:53:33.567Z,2.58
2022-09-20T13:56:21.853Z,2.60
2022-09-20T13:58:50.324Z,2.67
2022-09-20T14:01:29.503Z,2.95
2022-09-20T14:04:05.957Z,2.78
2022-09-20T14:06:33.530Z,3.42
2022-09-20T14:09:08.361Z,4.97
2022-09-20T14:11:38.191Z,3.42
2022-09-20T14:14:05.860Z,2.60
2022-09-20T14:16:38.180Z,2.90
2022-09-20T14:19:10.322Z,2.88
2022-09-20T14:21:38.610Z,2.83
2022-09-20T14:24:30.554Z,2.85
2022-09-20T14:27:16.480Z,3.03
2022-09-20T14:29:51.305Z,2.85
2022-09-20T14:32:18.273Z,2.60
2022-09-20T14:34:57.442Z,2.67
2022-09-20T15:00:58.226Z,2.45
2022-09-20T15:03:34.486Z,2.55
2022-09-20T15:06:01.398Z,2.20
2022-09-20T15:08:28.594Z,2.50
2022-09-20T15:10:55.497Z,2.10
2022-09-20T15:13:22.721Z,2.17
2022-09-20T15:15:53.426Z,2.55
2022-09-20T15:18:23.408Z,2.80
2022-09-20T15:20:51.395Z,3.30
2022-09-20T15:23:19.079Z,63.90
2022-09-20T15:25:50.051Z,31.95
2022-09-20T15:28:18.290Z,27.13
2022-09-20T15:30:46.706Z,25.67
2022-09-20T15:33:14.889Z,14.38
2022-09-20T15:35:43.071Z,19.60
2022-09-20T15:38:12.189Z,11.05
2022-09-20T15:40:43.439Z,3.35
2022-09-20T15:43:16.986Z,5.72
2022-09-20T15:46:01.280Z,6.78
2022-09-20T15:48:31.059Z,11.80
2022-09-20T15:50:58.871Z,21.60
2022-09-20T15:53:25.812Z,15.75
2022-09-20T15:55:52.759Z,5.85
2022-09-20T15:58:19.689Z,11.45
2022-09-20T16:00:48.718Z,11.95
2022-09-20T16:03:15.672Z,20.67
2022-09-20T16:05:42.735Z,9.00
2022-09-20T16:08:09.584Z,16.90
2022-09-20T16:10:38.743Z,16.45
2022-09-20T16:13:05.663Z,6.63
2022-09-20T16:15:32.514Z,7.68
2022-09-20T16:18:17.841Z,18.00
2022-09-20T16:20:44.750Z,10.23
2022-09-20T16:23:14.174Z,15.75
2022-09-20T16:25:40.996Z,47.75
2022-09-20T16:28:07.888Z,66.97
2022-09-20T16:30:34.847Z,68.57
2022-09-20T16:33:05.789Z,69.15
2022-09-20T16:35:34.404Z,107.45
2022-09-20T16:38:01.566Z,27.60
2022-09-20T16:40:29.097Z,23.70
2022-09-20T16:42:58.902Z,21.05
2022-09-20T16:45:27.250Z,30.48
2022-09-20T16:47:58.274Z,25.80
2022-09-20T16:50:25.152Z,23.02
2022-09-20T16:52:52.762Z,23.48
2022-09-20T16:55:21.014Z,30.45
2022-09-20T16:57:51.154Z,32.80
2022-09-20T17:00:21.177Z,32.80
2022-09-20T17:02:51.474Z,29.33
2022-09-20T17:05:18.302Z,28.02
2022-09-20T17:07:46.405Z,25.77
2022-09-20T17:10:13.377Z,23.42
2022-09-20T17:12:43.617Z,37.88
2022-09-20T17:15:13.481Z,38.33
2022-09-20T17:17:40.402Z,36.83
2022-09-20T17:20:08.118Z,38.85
2022-09-20T17:22:35.116Z,42.10
2022-09-20T17:25:02.939Z,33.38
2022-09-20T17:27:29.898Z,44.88
2022-09-20T17:29:56.934Z,45.60
2022-09-20T17:32:24.415Z,33.67
2022-09-20T17:34:51.380Z,37.85
2022-09-20T17:37:18.569Z,45.42
2022-09-20T17:39:45.647Z,34.70
2022-09-20T17:42:12.618Z,36.70
2022-09-20T17:44:39.522Z,23.27
2022-09-20T17:47:06.933Z,25.38
2022-09-20T17:49:34.953Z,20.48
2022-09-20T17:52:02.092Z,21.20
2022-09-20T17:54:29.133Z,32.97
2022-09-20T17:56:56.366Z,34.70
2022-09-20T17:59:23.692Z,27.88
2022-09-20T18:01:51.690Z,28.88
2022-09-20T18:04:21.153Z,23.95
2022-09-20T18:06:50.274Z,24.02
2022-09-20T18:09:19.653Z,25.88
2022-09-20T18:11:50.111Z,25.52
2022-09-20T18:14:23.422Z,26.17
2022-09-20T18:16:58.236Z,19.52
2022-09-20T18:19:32.814Z,21.08
2022-09-20T18:22:01.480Z,20.10
2022-09-20T18:24:28.634Z,19.95
2022-09-20T18:26:56.083Z,21.33
2022-09-20T18:29:23.921Z,18.23
2022-09-20T18:31:54.697Z,18.95
2022-09-20T18:36:57.912Z,18.98
2022-09-20T18:39:26.856Z,18.10
2022-09-20T18:41:54.528Z,18.15
2022-09-20T18:44:22.735Z,18.88
2022-09-20T18:46:53.528Z,16.23
2022-09-20T18:51:49.871Z,16.52
2022-09-20T18:54:17.450Z,17.50
2022-09-20T18:56:46.598Z,19.55
2022-09-20T18:59:15.073Z,22.75
2022-09-20T19:01:51.154Z,24.67
2022-09-20T19:04:42.348Z,29.55
2022-09-20T19:07:28.500Z,26.80
2022-09-20T19:10:04.555Z,24.50
2022-09-20T19:12:39.561Z,19.52
2022-09-20T19:15:34.491Z,19.35
2022-09-20T19:18:25.912Z,17.38
2022-09-20T19:21:11.130Z,16.73
2022-09-20T19:23:59.917Z,19.52
2022-09-20T19:26:31.777Z,21.85
2022-09-20T19:29:00.778Z,21.42
2022-09-20T19:31:31.694Z,22.48
2022-09-20T19:34:01.386Z,20.08
2022-09-20T19:37:10.592Z,20.45
2022-09-20T19:39:42.813Z,19.85
2022-09-20T19:42:14.525Z,19.75
2022-09-20T19:44:44.113Z,18.70
2022-09-20T19:47:22.302Z,17.02
2022-09-20T19:50:00.113Z,16.27
2022-09-20T19:52:27.421Z,14.65
2022-09-20T19:54:54.757Z,16.70
2022-09-20T19:57:28.584Z,21.08
2022-09-20T19:59:56.830Z,22.17
2022-09-20T20:02:24.063Z,22.70
2022-09-20T20:04:51.771Z,22.85
2022-09-20T20:07:36.966Z,20.45
2022-09-20T20:10:13.839Z,23.23
2022-09-20T20:12:56.178Z,22.00
2022-09-20T20:15:29.238Z,23.42
2022-09-20T20:18:21.138Z,23.83
2022-09-20T20:20:55.003Z,20.13
2022-09-20T20:23:58.231Z,20.75
2022-09-20T20:26:26.378Z,19.45
2022-09-20T20:28:53.815Z,18.38
2022-09-20T20:31:21.656Z,18.40
2022-09-20T20:33:49.479Z,17.88
2022-09-20T20:36:17.481Z,19.20
2022-09-20T20:38:50.038Z,16.27
2022-09-20T20:41:20.691Z,18.90
2022-09-20T20:43:48.999Z,18.00
2022-09-20T20:46:18.943Z,17.67
2022-09-20T20:48:47.602Z,20.40
2022-09-20T20:51:17.736Z,16.63
2022-09-20T20:53:50.551Z,19.67
2022-09-20T20:56:22.930Z,19.15
2022-09-20T20:58:50.169Z,17.17
2022-09-20T21:01:22.908Z,19.50
2022-09-20T21:03:54.905Z,18.70
2022-09-20T21:06:25.427Z,19.02
2022-09-20T21:08:53.327Z,18.50
2022-09-20T21:11:23.679Z,19.17
2022-09-20T21:13:55.937Z,18.35
2022-09-20T21:16:26.246Z,16.42
2022-09-20T21:18:53.652Z,15.68
2022-09-20T21:21:27.067Z,18.80
2022-09-20T21:23:56.239Z,16.30
2022-09-20T21:26:24.698Z,14.77
2022-09-20T21:28:59.312Z,17.75
2022-09-20T21:31:28.873Z,16.63
2022-09-20T21:33:56.535Z,17.83
2022-09-20T21:36:28.477Z,15.95
2022-09-20T21:38:56.123Z,18.52
2022-09-20T21:41:25.773Z,18.42
2022-09-20T21:43:57.564Z,17.02
2022-09-20T21:46:30.097Z,16.20
2022-09-20T21:48:58.846Z,18.65
2022-09-20T21:51:27.368Z,17.52
2022-09-20T21:53:58.561Z,17.40
2022-09-20T21:56:27.802Z,18.63
2022-09-20T21:58:55.681Z,16.73
2022-09-20T22:01:24.771Z,16.60
2022-09-20T22:03:57.849Z,15.23
2022-09-20T22:06:34.098Z,17.65
2022-09-20T22:09:06.475Z,16.67
2022-09-20T22:11:42.014Z,16.80
2022-09-20T22:14:10.546Z,18.23
2022-09-20T22:16:39.220Z,17.48
2022-09-20T22:19:08.179Z,18.00
2022-09-20T22:21:37.336Z,16.42
2022-09-20T22:24:07.581Z,18.98
2022-09-20T22:26:37.767Z,19.30
2022-09-20T22:29:05.433Z,20.00
2022-09-20T22:31:34.947Z,16.98
2022-09-20T22:34:04.474Z,18.48
2022-09-20T22:36:36.835Z,15.77
2022-09-20T22:39:07.663Z,17.27
2022-09-20T22:44:02.406Z,17.50
2022-09-20T22:46:30.612Z,17.45
2022-09-20T22:48:57.939Z,16.75
2022-09-20T22:51:31.698Z,18.30
2022-09-20T22:53:58.557Z,18.88
2022-09-20T22:56:30.778Z,18.48
2022-09-20T22:59:03.926Z,17.98
2022-09-20T23:01:33.566Z,16.60
2022-09-20T23:04:08.437Z,16.75
2022-09-20T23:06:39.135Z,15.68
2022-09-20T23:09:08.630Z,17.65
2022-09-20T23:11:36.310Z,17.08
2022-09-20T23:14:07.486Z,16.08
2022-09-20T23:16:36.897Z,15.73
2022-09-20T23:19:06.290Z,15.38
2022-09-20T23:21:34.305Z,17.35
2022-09-20T23:24:04.373Z,15.45
2022-09-20T23:26:34.702Z,14.43
2022-09-20T23:29:07.557Z,14.57
2022-09-20T23:31:36.787Z,13.15
2022-09-20T23:34:06.092Z,13.63
2022-09-20T23:36:35.719Z,12.50
2022-09-20T23:39:02.902Z,11.93
2022-09-20T23:41:30.384Z,10.93
2022-09-20T23:43:58.395Z,11.35
2022-09-20T23:46:26.932Z,10.68
2022-09-20T23:48:54.422Z,10.25
2022-09-20T23:51:23.986Z,11.45
2022-09-20T23:53:52.399Z,10.00
2022-09-20T23:56:20.740Z,10.38
2022-09-20T23:58:48.848Z,9.27
